Proud — 9HWA9 — position and weather

sailwx.info

Track history (hours):
 
Tides and Currents Weather Stations Pressure Air Temp Water Temp Dewpoint Dewpoint Depression Visibility Wind Speed Wind Dir Waves Ship Positions

Proud

Last reported at 2015-Jul-05 00:26 UTC. Time now 2015-Jul-06 04:56 UTC.
Position S 28°34' E 032°56'.

Length 292 m; draft 18 m.

Type: Cargo ship. MMSI: 249619000.

Date/timePositionNaut miles runAvg speedWind from/ knotsBaromVisibWave heightAir tempDewpointWater temp
2015-Jul-05 00:26S 28°34' E 032°56'9 9.9
2015-Jul-04 23:33S 28°39' E 032°49'10 9.6
2015-Jul-04 22:33S 28°46' E 032°40'9 9.4
2015-Jul-04 21:33S 28°52' E 032°32'9 9.0
2015-Jul-04 20:33S 28°58' E 032°24'9 8.9
2015-Jul-04 19:33S 29°03' E 032°17'9 8.7
2015-Jul-04 18:33S 29°09' E 032°09'8 8.5
2015-Jul-04 17:33S 29°14' E 032°01'10 9.6
2015-Jul-04 16:33S 29°20' E 031°53'1010.4
2015-Jul-04 15:33S 29°27' E 031°44'1110.6
2015-Jul-04 14:33S 29°33' E 031°34'1110.7
2015-Jul-04 13:33S 29°40' E 031°25'1110.6
2015-Jul-04 12:33S 29°48' E 031°16'8 6.7
2015-Jul-04 11:19S 29°53' E 031°09'0 0.1
2015-Jul-04 10:33S 29°53' E 031°09'0 0.1
2015-Jul-04 09:33S 29°53' E 031°09'0 0.2
2015-Jul-04 08:33S 29°53' E 031°09'0 0.5
2015-Jul-04 07:33S 29°53' E 031°09'1 0.6
2015-Jul-04 06:33S 29°52' E 031°09'2 1.8
2015-Jul-04 05:33S 29°53' E 031°10'4 4.2
2015-Jul-04 04:33S 29°55' E 031°14'0 0.4
2015-Jul-04 03:33S 29°55' E 031°14'1 1.0
2015-Jul-04 02:33S 29°56' E 031°13'6 5.9
2015-Jul-04 01:34S 29°58' E 031°07'1110.6
2015-Jul-04 00:33S 30°07' E 031°01'1010.3
2015-Jul-03 23:34S 30°16' E 030°56'1010.1
2015-Jul-03 22:34S 30°25' E 030°50'1110.9
2015-Jul-03 21:33S 30°34' E 030°43'14 9.8
2015-Jul-03 20:06S 30°47' E 030°36'5 8.7
2015-Jul-03 19:33S 30°51' E 030°34'11 8.1
2015-Jul-03 18:15S 31°00' E 030°26'  
Track history (hours):
 
Tides and Currents Weather Stations Pressure Air Temp Water Temp Dewpoint Dewpoint Depression Visibility Wind Speed Wind Dir Waves Ship Positions

Proud

Last reported at 2015-Jul-05 00:26 UTC. Time now 2015-Jul-06 04:56 UTC.
Position S 28°34' E 032°56'.

Length 292 m; draft 18 m.

Type: Cargo ship. MMSI: 249619000.

Date/timePositionNaut miles runAvg speedWind from/ knotsBaromVisibWave heightAir tempDewpointWater temp
2015-Jul-05 00:26S 28°34' E 032°56'9 9.9
2015-Jul-04 23:33S 28°39' E 032°49'10 9.6
2015-Jul-04 22:33S 28°46' E 032°40'9 9.4
2015-Jul-04 21:33S 28°52' E 032°32'9 9.0
2015-Jul-04 20:33S 28°58' E 032°24'9 8.9
2015-Jul-04 19:33S 29°03' E 032°17'9 8.7
2015-Jul-04 18:33S 29°09' E 032°09'8 8.5
2015-Jul-04 17:33S 29°14' E 032°01'10 9.6
2015-Jul-04 16:33S 29°20' E 031°53'1010.4
2015-Jul-04 15:33S 29°27' E 031°44'1110.6
2015-Jul-04 14:33S 29°33' E 031°34'1110.7
2015-Jul-04 13:33S 29°40' E 031°25'1110.6
2015-Jul-04 12:33S 29°48' E 031°16'8 6.7
2015-Jul-04 11:19S 29°53' E 031°09'0 0.1
2015-Jul-04 10:33S 29°53' E 031°09'0 0.1
2015-Jul-04 09:33S 29°53' E 031°09'0 0.2
2015-Jul-04 08:33S 29°53' E 031°09'0 0.5
2015-Jul-04 07:33S 29°53' E 031°09'1 0.6
2015-Jul-04 06:33S 29°52' E 031°09'2 1.8
2015-Jul-04 05:33S 29°53' E 031°10'4 4.2
2015-Jul-04 04:33S 29°55' E 031°14'0 0.4
2015-Jul-04 03:33S 29°55' E 031°14'1 1.0
2015-Jul-04 02:33S 29°56' E 031°13'6 5.9
2015-Jul-04 01:34S 29°58' E 031°07'1110.6
2015-Jul-04 00:33S 30°07' E 031°01'1010.3
2015-Jul-03 23:34S 30°16' E 030°56'1010.1
2015-Jul-03 22:34S 30°25' E 030°50'1110.9
2015-Jul-03 21:33S 30°34' E 030°43'14 9.8
2015-Jul-03 20:06S 30°47' E 030°36'5 8.7
2015-Jul-03 19:33S 30°51' E 030°34'11 8.1
2015-Jul-03 18:15S 31°00' E 030°26'  

Dump ship's entire track history